createdAt,value
2017-05-26T00:00:15.299Z,0
2017-05-26T00:01:15.596Z,0
2017-05-26T00:02:15.276Z,0
2017-05-26T00:03:14.958Z,0
2017-05-26T00:04:15.538Z,0
2017-05-26T00:05:15.226Z,0
2017-05-26T00:06:15.212Z,0
2017-05-26T00:07:15.203Z,0
2017-05-26T00:08:15.487Z,0
2017-05-26T00:09:15.171Z,0
2017-05-26T00:10:15.459Z,0
2017-05-26T00:11:15.139Z,0
2017-05-26T00:12:15.124Z,0
2017-05-26T00:13:15.417Z,0
2017-05-26T00:14:15.412Z,0
2017-05-26T00:15:15.381Z,0
2017-05-26T00:16:15.368Z,0
2017-05-26T00:17:15.054Z,0
2017-05-26T00:18:15.339Z,0
2017-05-26T00:19:15.025Z,0
2017-05-26T00:20:15.307Z,0
2017-05-26T00:21:14.993Z,0
2017-05-26T00:22:15.281Z,0
2017-05-26T00:23:14.959Z,0
2017-05-26T00:24:14.945Z,0
2017-05-26T00:25:15.232Z,0
2017-05-26T00:26:15.218Z,0
2017-05-26T00:27:15.277Z,0
2017-05-26T00:28:15.194Z,0
2017-05-26T00:29:15.187Z,0
2017-05-26T00:30:14.855Z,0
2017-05-26T00:31:15.144Z,0
2017-05-26T00:32:14.832Z,0
2017-05-26T00:33:15.119Z,0
2017-05-26T00:34:15.099Z,0
2017-05-26T00:35:14.788Z,0
2017-05-26T00:36:15.117Z,0
2017-05-26T00:37:15.058Z,0
2017-05-26T00:38:14.737Z,0
2017-05-26T00:39:15.031Z,0
2017-05-26T00:40:15.007Z,0
2017-05-26T00:41:14.695Z,0
2017-05-26T00:42:14.377Z,0
2017-05-26T00:43:14.963Z,0
2017-05-26T00:44:14.648Z,0
2017-05-26T00:45:14.632Z,0
2017-05-26T00:46:14.921Z,0
2017-05-26T00:47:14.608Z,0
2017-05-26T00:48:14.589Z,0
2017-05-26T00:49:14.886Z,0
2017-05-26T00:50:14.562Z,0
2017-05-26T00:51:14.846Z,0
2017-05-26T00:52:14.833Z,0
2017-05-26T00:53:14.517Z,0
2017-05-26T00:54:14.502Z,0
2017-05-26T00:55:14.791Z,0
2017-05-26T00:56:14.775Z,0
2017-05-26T00:57:14.763Z,0
2017-05-26T00:58:14.740Z,0
2017-05-26T00:59:14.430Z,0
2017-05-26T01:00:14.720Z,0
2017-05-26T01:01:14.697Z,0
2017-05-26T01:02:14.080Z,0
2017-05-26T01:03:14.674Z,0
2017-05-26T01:04:14.657Z,0
2017-05-26T01:05:14.047Z,0
2017-05-26T01:06:14.632Z,0
2017-05-26T01:07:14.622Z,0
2017-05-26T01:08:13.997Z,0
2017-05-26T01:09:14.587Z,0
2017-05-26T01:10:14.571Z,0
2017-05-26T01:11:14.559Z,0
2017-05-26T01:12:13.934Z,0
2017-05-26T01:13:14.528Z,0
2017-05-26T01:14:14.215Z,0
2017-05-26T01:15:14.504Z,0
2017-05-26T01:16:14.182Z,0
2017-05-26T01:17:14.461Z,0
2017-05-26T01:18:14.455Z,0
2017-05-26T01:19:14.142Z,0
2017-05-26T01:20:14.427Z,0
2017-05-26T01:21:14.109Z,0
2017-05-26T01:22:14.395Z,0
2017-05-26T01:23:14.075Z,0
2017-05-26T01:24:14.368Z,0
2017-05-26T01:25:14.048Z,0
2017-05-26T01:26:14.032Z,0
2017-05-26T01:27:14.024Z,0
2017-05-26T01:28:14.010Z,0
2017-05-26T01:29:14.299Z,0
2017-05-26T01:30:14.283Z,0
2017-05-26T01:31:14.269Z,0
2017-05-26T01:32:14.247Z,0
2017-05-26T01:33:14.239Z,0
2017-05-26T01:34:14.221Z,0
2017-05-26T01:35:14.206Z,0
2017-05-26T01:36:14.197Z,0
2017-05-26T01:37:13.877Z,0
2017-05-26T01:38:14.171Z,0
2017-05-26T01:39:13.848Z,0
2017-05-26T01:40:14.141Z,0
2017-05-26T01:41:14.120Z,0
2017-05-26T01:42:13.806Z,0
2017-05-26T01:43:13.805Z,0
2017-05-26T01:44:14.081Z,0
2017-05-26T01:45:13.769Z,0
2017-05-26T01:46:13.449Z,0
2017-05-26T01:47:13.437Z,0
2017-05-26T01:48:13.727Z,0
2017-05-26T01:49:13.404Z,0
2017-05-26T01:50:13.696Z,0
2017-05-26T01:51:14.047Z,0
2017-05-26T01:52:13.667Z,0
2017-05-26T01:53:13.655Z,0
2017-05-26T01:54:13.342Z,0
2017-05-26T01:55:13.326Z,0
2017-05-26T01:56:13.911Z,0
2017-05-26T01:57:13.905Z,0
2017-05-26T01:58:13.885Z,0
2017-05-26T01:59:13.882Z,0
2017-05-26T02:00:13.262Z,0
2017-05-26T02:01:13.845Z,0
2017-05-26T02:02:13.833Z,0
2017-05-26T02:03:13.517Z,0
2017-05-26T02:04:13.815Z,0
2017-05-26T02:05:13.794Z,0
2017-05-26T02:06:13.477Z,0
2017-05-26T02:07:13.767Z,0
2017-05-26T02:08:13.448Z,0
2017-05-26T02:09:13.737Z,0
2017-05-26T02:10:13.721Z,0
2017-05-26T02:11:13.715Z,0
2017-05-26T02:12:13.695Z,0
2017-05-26T02:13:13.686Z,0
2017-05-26T02:14:13.665Z,0
2017-05-26T02:15:13.054Z,0
2017-05-26T02:16:13.342Z,0
2017-05-26T02:17:13.628Z,0
2017-05-26T02:18:13.616Z,0
2017-05-26T02:19:13.608Z,0
2017-05-26T02:20:13.280Z,0
2017-05-26T02:21:13.579Z,0
2017-05-26T02:22:13.558Z,0
2017-05-26T02:23:13.548Z,0
2017-05-26T02:24:13.529Z,0
2017-05-26T02:25:13.521Z,0
2017-05-26T02:26:13.504Z,0
2017-05-26T02:27:13.194Z,0
2017-05-26T02:28:13.176Z,0
2017-05-26T02:29:13.469Z,0
2017-05-26T02:30:13.455Z,0
2017-05-26T02:31:13.450Z,0
2017-05-26T02:32:13.128Z,0
2017-05-26T02:33:13.182Z,0
2017-05-26T02:34:13.098Z,0
2017-05-26T02:35:13.390Z,0
2017-05-26T02:36:13.379Z,0
2017-05-26T02:37:13.359Z,0
2017-05-26T02:38:13.350Z,0
2017-05-26T02:39:13.332Z,0
2017-05-26T02:40:13.319Z,0
2017-05-26T02:41:13.008Z,0
2017-05-26T02:42:13.295Z,0
2017-05-26T02:43:13.282Z,0
2017-05-26T02:44:13.273Z,0
2017-05-26T02:45:13.260Z,0
2017-05-26T02:46:13.245Z,4
2017-05-26T02:47:12.926Z,4
2017-05-26T02:48:13.216Z,4
2017-05-26T02:49:13.201Z,0
2017-05-26T02:50:12.892Z,4
2017-05-26T02:51:13.177Z,4
2017-05-26T02:52:13.167Z,4
2017-05-26T02:53:12.855Z,4
2017-05-26T02:54:13.140Z,4
2017-05-26T02:55:13.124Z,8
2017-05-26T02:56:12.815Z,8
2017-05-26T02:57:13.108Z,8
2017-05-26T02:58:12.790Z,12
2017-05-26T02:59:12.778Z,12
2017-05-26T03:00:13.061Z,16
2017-05-26T03:01:13.050Z,16
2017-05-26T03:02:13.032Z,20
2017-05-26T03:03:13.027Z,24
2017-05-26T03:04:13.014Z,28
2017-05-26T03:05:12.693Z,32
2017-05-26T03:06:12.380Z,40
2017-05-26T03:07:12.672Z,44
2017-05-26T03:08:12.353Z,48
2017-05-26T03:09:12.640Z,56
2017-05-26T03:10:12.330Z,68
2017-05-26T03:11:12.313Z,80
2017-05-26T03:12:12.904Z,88
2017-05-26T03:13:12.292Z,104
2017-05-26T03:14:12.876Z,120
2017-05-26T03:15:12.964Z,136
2017-05-26T03:16:11.949Z,156
2017-05-26T03:17:12.237Z,176
2017-05-26T03:18:12.528Z,200
2017-05-26T03:19:12.515Z,224
2017-05-26T03:20:12.604Z,252
2017-05-26T03:21:12.791Z,284
2017-05-26T03:22:12.524Z,316
2017-05-26T03:23:12.461Z,352
2017-05-26T03:24:12.748Z,384
2017-05-26T03:25:12.732Z,424
2017-05-26T03:26:12.123Z,468
2017-05-26T03:27:11.805Z,508
2017-05-26T03:28:12.100Z,556
2017-05-26T03:29:12.084Z,604
2017-05-26T03:30:12.065Z,652
2017-05-26T03:31:12.358Z,704
2017-05-26T03:32:12.350Z,756
2017-05-26T03:33:12.332Z,812
2017-05-26T03:34:12.325Z,864
2017-05-26T03:35:12.609Z,924
2017-05-26T03:36:12.292Z,980
2017-05-26T03:37:12.288Z,1036
2017-05-26T03:38:11.972Z,1096
2017-05-26T03:39:12.266Z,1156
2017-05-26T03:40:12.542Z,1216
2017-05-26T03:41:12.229Z,1276
2017-05-26T03:42:12.530Z,1340
2017-05-26T03:43:12.211Z,1400
2017-05-26T03:44:12.194Z,1464
2017-05-26T03:45:12.182Z,1524
2017-05-26T03:46:12.167Z,1584
2017-05-26T03:47:12.155Z,1648
2017-05-26T03:48:12.449Z,1704
2017-05-26T03:49:12.142Z,1768
2017-05-26T03:50:12.120Z,1828
2017-05-26T03:51:12.109Z,1888
2017-05-26T03:52:11.788Z,1948
2017-05-26T03:53:12.081Z,2008
2017-05-26T03:54:12.372Z,2064
2017-05-26T03:55:12.360Z,2124
2017-05-26T03:56:12.344Z,2176
2017-05-26T03:57:12.337Z,2236
2017-05-26T03:58:12.024Z,2292
2017-05-26T03:59:12.001Z,2348
2017-05-26T04:00:12.293Z,2400
2017-05-26T04:01:11.984Z,2460
2017-05-26T04:02:11.971Z,2512
2017-05-26T04:03:12.262Z,2564
2017-05-26T04:04:11.944Z,2616
2017-05-26T04:05:12.251Z,2668
2017-05-26T04:06:12.224Z,2720
2017-05-26T04:07:12.214Z,2768
2017-05-26T04:08:12.205Z,2816
2017-05-26T04:09:12.191Z,2868
2017-05-26T04:10:12.177Z,2916
2017-05-26T04:11:12.157Z,2964
2017-05-26T04:12:12.154Z,3012
2017-05-26T04:13:12.137Z,3056
2017-05-26T04:14:12.132Z,3104
2017-05-26T04:15:12.111Z,3152
2017-05-26T04:16:11.793Z,3200
2017-05-26T04:17:11.788Z,3240
2017-05-26T04:18:11.778Z,3288
2017-05-26T04:19:11.764Z,3328
2017-05-26T04:20:12.120Z,3372
2017-05-26T04:21:11.738Z,3412
2017-05-26T04:22:11.721Z,3456
2017-05-26T04:23:11.721Z,3492
2017-05-26T04:24:11.706Z,3532
2017-05-26T04:25:11.691Z,3576
2017-05-26T04:26:11.684Z,3620
2017-05-26T04:27:11.968Z,3656
2017-05-26T04:28:11.962Z,3696
2017-05-26T04:29:11.950Z,3736
2017-05-26T04:30:11.930Z,3768
2017-05-26T04:31:11.622Z,3808
2017-05-26T04:32:11.920Z,3848
2017-05-26T04:33:11.903Z,3884
2017-05-26T04:34:11.890Z,3928
2017-05-26T04:35:11.874Z,6304
2017-05-26T04:36:11.864Z,11308
2017-05-26T04:37:11.860Z,13836
2017-05-26T04:38:11.537Z,15968
2017-05-26T04:39:11.828Z,15456
2017-05-26T04:40:11.816Z,14364
2017-05-26T04:41:11.811Z,16896
2017-05-26T04:42:11.495Z,17376
2017-05-26T04:43:11.782Z,17792
2017-05-26T04:44:11.467Z,17344
2017-05-26T04:45:11.752Z,18112
2017-05-26T04:46:11.756Z,17984
2017-05-26T04:47:11.748Z,15968
2017-05-26T04:48:11.727Z,12648
2017-05-26T04:49:11.714Z,12860
2017-05-26T04:50:11.400Z,16896
2017-05-26T04:51:11.691Z,22976
2017-05-26T04:52:11.687Z,22944
2017-05-26T04:53:11.672Z,17632
2017-05-26T04:54:11.661Z,17216
2017-05-26T04:55:11.651Z,18592
2017-05-26T04:56:11.643Z,24128
2017-05-26T04:57:11.628Z,25248
2017-05-26T04:58:11.619Z,22496
2017-05-26T04:59:11.606Z,23136
2017-05-26T05:00:11.603Z,25152
2017-05-26T05:01:11.649Z,24576
2017-05-26T05:02:11.573Z,27072
2017-05-26T05:03:11.564Z,27456
2017-05-26T05:04:11.557Z,26368
2017-05-26T05:05:11.545Z,28608
2017-05-26T05:06:11.538Z,27328
2017-05-26T05:07:11.526Z,23968
2017-05-26T05:08:11.522Z,25376
2017-05-26T05:09:11.207Z,25472
2017-05-26T05:10:11.497Z,28096
2017-05-26T05:11:11.484Z,30176
2017-05-26T05:12:11.477Z,28864
2017-05-26T05:13:11.533Z,29408
2017-05-26T05:14:11.465Z,28384
2017-05-26T05:15:11.448Z,25504
2017-05-26T05:16:11.439Z,23584
2017-05-26T05:17:11.125Z,26176
2017-05-26T05:18:11.420Z,27264
2017-05-26T05:19:11.414Z,29088
2017-05-26T05:20:11.107Z,32320
2017-05-26T05:21:11.392Z,31616
2017-05-26T05:22:11.384Z,29184
2017-05-26T05:23:11.372Z,31360
2017-05-26T05:24:10.762Z,29728
2017-05-26T05:25:11.364Z,27680
2017-05-26T05:26:11.043Z,28896
2017-05-26T05:27:11.333Z,33792
2017-05-26T05:28:11.027Z,35904
2017-05-26T05:29:11.012Z,38400
2017-05-26T05:30:10.998Z,39168
2017-05-26T05:31:11.293Z,38048
2017-05-26T05:32:11.305Z,36000
2017-05-26T05:33:10.970Z,34592
2017-05-26T05:34:11.266Z,34144
2017-05-26T05:35:11.270Z,33664
2017-05-26T05:36:11.319Z,39104
2017-05-26T05:37:10.929Z,44832
2017-05-26T05:38:11.229Z,39712
2017-05-26T05:39:11.222Z,36992
2017-05-26T05:40:11.208Z,36992
2017-05-26T05:41:10.600Z,38656
2017-05-26T05:42:11.186Z,37376
2017-05-26T05:43:11.186Z,35136
2017-05-26T05:44:11.177Z,36000
2017-05-26T05:45:10.854Z,36576
2017-05-26T05:46:11.145Z,35488
2017-05-26T05:47:11.139Z,38560
2017-05-26T05:48:11.135Z,41056
2017-05-26T05:49:11.127Z,39008
2017-05-26T05:50:10.812Z,44096
2017-05-26T05:51:11.104Z,40928
2017-05-26T05:52:11.095Z,35104
2017-05-26T05:53:11.090Z,40352
2017-05-26T05:54:11.081Z,45952
2017-05-26T05:55:11.073Z,52224
2017-05-26T05:56:10.757Z,47040
2017-05-26T05:57:11.056Z,39904
2017-05-26T05:58:10.735Z,38304
2017-05-26T05:59:11.033Z,45120
2017-05-26T06:00:10.714Z,48416
2017-05-26T06:01:11.011Z,47744
2017-05-26T06:02:11.000Z,47200
2017-05-26T06:03:10.992Z,45536
2017-05-26T06:04:10.989Z,52288
2017-05-26T06:05:10.981Z,54144
2017-05-26T06:06:10.966Z,48992
2017-05-26T06:07:10.657Z,46720
2017-05-26T06:08:10.944Z,46592
2017-05-26T06:09:10.941Z,46528
2017-05-26T06:10:10.642Z,49792
2017-05-26T06:11:10.621Z,47904
2017-05-26T06:12:10.609Z,47488
2017-05-26T06:13:10.912Z,51648
2017-05-26T06:14:10.899Z,50368
2017-05-26T06:15:10.893Z,50240
2017-05-26T06:16:10.881Z,51712
2017-05-26T06:17:10.872Z,60832
2017-05-26T06:18:10.867Z,63840
2017-05-26T06:19:10.550Z,51008
2017-05-26T06:20:10.543Z,47296
2017-05-26T06:21:10.843Z,50432
2017-05-26T06:22:10.828Z,53504
2017-05-26T06:23:10.825Z,57216
2017-05-26T06:24:10.817Z,56000
2017-05-26T06:25:10.810Z,49920
2017-05-26T06:26:10.494Z,48576
2017-05-26T06:27:09.885Z,50816
2017-05-26T06:28:10.783Z,49824
2017-05-26T06:29:10.775Z,55008
2017-05-26T06:30:09.859Z,54176
2017-05-26T06:31:10.453Z,60480
2017-05-26T06:32:10.748Z,55040
2017-05-26T06:33:10.742Z,49408
2017-05-26T06:34:10.431Z,54400
2017-05-26T06:35:10.122Z,58496
2017-05-26T06:36:10.719Z,57184
2017-05-26T06:37:10.412Z,64768
2017-05-26T06:38:10.702Z,75936
2017-05-26T06:39:10.695Z,82400
2017-05-26T06:40:09.780Z,51328
2017-05-26T06:41:10.376Z,34432
2017-05-26T06:42:10.066Z,32480
2017-05-26T06:43:10.657Z,35456
2017-05-26T06:44:10.654Z,46560
2017-05-26T06:45:10.349Z,64928
2017-05-26T06:46:10.636Z,70464
2017-05-26T06:47:10.023Z,61088
2017-05-26T06:48:10.622Z,61568
2017-05-26T06:49:10.625Z,73952
2017-05-26T06:50:10.611Z,84608
2017-05-26T06:51:10.599Z,81024
2017-05-26T06:52:10.589Z,75200
2017-05-26T06:53:10.289Z,66368
2017-05-26T06:54:10.282Z,61184
2017-05-26T06:55:10.266Z,67456
2017-05-26T06:56:10.562Z,66048
2017-05-26T06:57:10.253Z,62528
2017-05-26T06:58:10.540Z,66304
2017-05-26T06:59:09.936Z,64352
2017-05-26T07:00:09.631Z,73312
2017-05-26T07:01:10.521Z,76256
2017-05-26T07:02:09.912Z,71488
2017-05-26T07:03:10.209Z,72608
2017-05-26T07:04:10.506Z,71104
2017-05-26T07:05:09.894Z,76736
2017-05-26T07:06:10.496Z,79744
2017-05-26T07:07:10.178Z,77568
2017-05-26T07:08:09.876Z,81984
2017-05-26T07:09:10.171Z,84576
2017-05-26T07:10:09.857Z,76768
2017-05-26T07:11:10.150Z,78880
2017-05-26T07:12:10.448Z,79200
2017-05-26T07:13:10.143Z,71712
2017-05-26T07:14:10.130Z,74368
2017-05-26T07:15:10.128Z,85248
2017-05-26T07:16:10.122Z,90624
2017-05-26T07:17:10.115Z,88096
2017-05-26T07:18:10.110Z,83648
2017-05-26T07:19:10.104Z,83296
2017-05-26T07:20:10.100Z,96960
2017-05-26T07:21:10.398Z,83840
2017-05-26T07:22:10.386Z,47776
2017-05-26T07:23:10.113Z,32160
2017-05-26T07:24:10.067Z,32672
2017-05-26T07:25:09.760Z,44864
2017-05-26T07:26:10.057Z,75712
2017-05-26T07:27:10.359Z,97280
2017-05-26T07:28:10.043Z,97120
2017-05-26T07:29:10.044Z,98144
2017-05-26T07:30:09.728Z,91616
2017-05-26T07:31:10.322Z,69504
2017-05-26T07:32:10.014Z,53920
2017-05-26T07:33:10.079Z,50784
2017-05-26T07:34:10.010Z,53216
2017-05-26T07:35:10.303Z,67104
2017-05-26T07:36:09.996Z,95616
2017-05-26T07:37:09.993Z,98496
2017-05-26T07:38:10.001Z,82432
2017-05-26T07:39:09.975Z,79136
2017-05-26T07:40:09.963Z,85856
2017-05-26T07:41:09.960Z,91648
2017-05-26T07:42:10.261Z,91040
2017-05-26T07:43:09.947Z,81600
2017-05-26T07:44:09.941Z,82720
2017-05-26T07:45:09.928Z,93376
2017-05-26T07:46:09.919Z,101664
2017-05-26T07:47:09.918Z,103712
2017-05-26T07:48:09.913Z,82624
2017-05-26T07:49:09.902Z,68736
2017-05-26T07:50:10.202Z,75168
2017-05-26T07:51:09.887Z,74496
2017-05-26T07:52:10.186Z,86048
2017-05-26T07:53:10.180Z,89952
2017-05-26T07:54:09.565Z,83520
2017-05-26T07:55:09.862Z,83840
2017-05-26T07:56:09.850Z,89152
2017-05-26T07:57:09.839Z,91264
2017-05-26T07:58:10.144Z,101056
2017-05-26T07:59:09.821Z,111232
2017-05-26T08:00:10.127Z,107360
2017-05-26T08:01:09.813Z,101216
2017-05-26T08:02:09.504Z,103232
2017-05-26T08:03:09.799Z,101280
2017-05-26T08:04:09.793Z,99552
2017-05-26T08:05:09.784Z,101056
2017-05-26T08:06:09.778Z,106752
2017-05-26T08:07:09.776Z,105920
2017-05-26T08:08:09.456Z,109120
2017-05-26T08:09:09.755Z,116384
2017-05-26T08:10:09.445Z,102912
2017-05-26T08:11:09.746Z,87680
2017-05-26T08:12:09.731Z,88256
2017-05-26T08:13:09.419Z,86752
2017-05-26T08:14:09.413Z,88256
2017-05-26T08:15:09.708Z,87488
2017-05-26T08:16:09.703Z,90720
2017-05-26T08:17:09.990Z,100640
2017-05-26T08:18:09.990Z,94528
2017-05-26T08:19:09.979Z,91648
2017-05-26T08:20:09.664Z,106496
2017-05-26T08:21:09.665Z,110816
2017-05-26T08:22:09.949Z,106720
2017-05-26T08:23:09.646Z,109696
2017-05-26T08:24:09.639Z,109824
2017-05-26T08:25:09.627Z,100384
2017-05-26T08:26:09.619Z,94848
2017-05-26T08:27:09.608Z,102464
2017-05-26T08:28:09.902Z,112160
2017-05-26T08:29:09.899Z,119776
2017-05-26T08:30:09.591Z,113600
2017-05-26T08:31:09.880Z,99904
2017-05-26T08:32:09.873Z,92544
2017-05-26T08:33:09.866Z,95776
2017-05-26T08:34:09.862Z,96928
2017-05-26T08:35:09.249Z,97024
2017-05-26T08:36:09.537Z,95104
2017-05-26T08:37:09.832Z,88864
2017-05-26T08:38:09.834Z,102400
2017-05-26T08:39:09.817Z,112512
2017-05-26T08:40:09.204Z,103104
2017-05-26T08:41:09.798Z,104768
2017-05-26T08:42:09.498Z,117120
2017-05-26T08:43:09.487Z,120864
2017-05-26T08:44:09.478Z,119328
2017-05-26T08:45:09.775Z,119648
2017-05-26T08:46:09.463Z,109344
2017-05-26T08:47:09.459Z,103392
2017-05-26T08:48:09.454Z,117024
2017-05-26T08:49:09.443Z,129312
2017-05-26T08:50:09.434Z,116736
2017-05-26T08:51:09.436Z,91008
2017-05-26T08:52:09.725Z,86048
2017-05-26T08:53:09.423Z,104320
2017-05-26T08:54:09.412Z,117344
2017-05-26T08:55:09.407Z,113440
2017-05-26T08:56:09.714Z,98400
2017-05-26T08:57:09.697Z,104672
2017-05-26T08:58:09.686Z,106080
2017-05-26T08:59:09.682Z,109952
2017-05-26T09:00:09.363Z,138560
2017-05-26T09:01:09.362Z,134176
2017-05-26T09:02:09.654Z,117152
2017-05-26T09:03:09.648Z,112960
2017-05-26T09:04:09.640Z,114656
2017-05-26T09:05:09.641Z,113824
2017-05-26T09:06:09.623Z,100128
2017-05-26T09:07:09.619Z,92576
2017-05-26T09:08:09.621Z,88160
2017-05-26T09:09:09.612Z,87424
2017-05-26T09:10:09.602Z,87008
2017-05-26T09:11:09.597Z,82112
2017-05-26T09:12:09.589Z,82176
2017-05-26T09:13:09.582Z,99296
2017-05-26T09:14:09.578Z,114400
2017-05-26T09:15:09.564Z,124480
2017-05-26T09:16:09.562Z,132864
2017-05-26T09:17:09.614Z,123264
2017-05-26T09:18:09.553Z,122464
2017-05-26T09:19:09.542Z,107520
2017-05-26T09:20:09.537Z,116544
2017-05-26T09:21:09.526Z,109536
2017-05-26T09:22:09.227Z,109216
2017-05-26T09:23:09.217Z,107072
2017-05-26T09:24:09.216Z,101568
2017-05-26T09:25:09.514Z,101056
2017-05-26T09:26:09.505Z,98560
2017-05-26T09:27:09.498Z,96544
2017-05-26T09:28:09.189Z,97088
2017-05-26T09:29:08.877Z,96960
2017-05-26T09:30:09.478Z,96288
2017-05-26T09:31:09.475Z,94816
2017-05-26T09:32:09.473Z,94336
2017-05-26T09:33:09.164Z,94464
2017-05-26T09:34:09.154Z,94560
2017-05-26T09:35:09.453Z,95648
2017-05-26T09:36:09.146Z,98560
2017-05-26T09:37:09.142Z,99712
2017-05-26T09:38:09.436Z,102528
2017-05-26T09:39:09.436Z,105152
2017-05-26T09:40:09.120Z,107648
2017-05-26T09:41:09.459Z,104224
2017-05-26T09:42:09.416Z,101120
2017-05-26T09:43:09.113Z,94336
2017-05-26T09:44:09.409Z,92992
2017-05-26T09:45:09.107Z,87712
2017-05-26T09:46:09.396Z,88640
2017-05-26T09:47:09.088Z,92928
2017-05-26T09:48:09.387Z,95648
2017-05-26T09:49:09.411Z,100512
2017-05-26T09:50:09.375Z,101312
2017-05-26T09:51:09.376Z,102528
2017-05-26T09:52:09.069Z,102112
2017-05-26T09:53:09.368Z,102400
2017-05-26T09:54:09.062Z,104288
2017-05-26T09:55:09.353Z,105280
2017-05-26T09:56:09.048Z,105248
2017-05-26T09:57:09.340Z,104800
2017-05-26T09:58:09.037Z,103040
2017-05-26T09:59:09.537Z,102720
2017-05-26T10:00:09.035Z,104896
2017-05-26T10:01:09.330Z,110240
2017-05-26T10:02:09.017Z,113312
2017-05-26T10:03:09.317Z,113632
2017-05-26T10:04:09.304Z,112608
2017-05-26T10:05:09.313Z,113152
2017-05-26T10:06:09.307Z,114304
2017-05-26T10:07:09.291Z,117152
2017-05-26T10:08:08.983Z,117760
2017-05-26T10:09:08.982Z,117952
2017-05-26T10:10:08.974Z,117280
2017-05-26T10:11:09.275Z,117984
2017-05-26T10:12:09.267Z,118368
2017-05-26T10:13:08.665Z,119424
2017-05-26T10:14:09.252Z,119680
2017-05-26T10:15:08.947Z,122848
2017-05-26T10:16:09.240Z,123520
2017-05-26T10:17:08.932Z,128480
2017-05-26T10:18:09.238Z,131488
2017-05-26T10:19:09.223Z,131008
2017-05-26T10:20:09.249Z,128896
2017-05-26T10:21:09.209Z,127168
2017-05-26T10:22:09.131Z,124352
2017-05-26T10:23:09.200Z,123520
2017-05-26T10:24:09.205Z,127616
2017-05-26T10:25:09.200Z,130208
2017-05-26T10:26:09.190Z,133024
2017-05-26T10:27:09.383Z,134720
2017-05-26T10:28:09.187Z,133440
2017-05-26T10:29:09.178Z,135136
2017-05-26T10:30:09.166Z,134720
2017-05-26T10:31:08.863Z,133152
2017-05-26T10:32:08.872Z,135552
2017-05-26T10:33:08.859Z,136160
2017-05-26T10:34:08.852Z,134304
2017-05-26T10:35:09.157Z,134688
2017-05-26T10:36:09.140Z,133568
2017-05-26T10:37:08.838Z,132544
2017-05-26T10:38:08.831Z,133280
2017-05-26T10:39:08.828Z,132416
2017-05-26T10:40:09.127Z,132928
2017-05-26T10:41:08.820Z,131456
2017-05-26T10:42:08.816Z,129408
2017-05-26T10:43:08.808Z,132032
2017-05-26T10:44:08.803Z,131840
2017-05-26T10:45:09.116Z,131200
2017-05-26T10:46:09.099Z,128288
2017-05-26T10:47:09.099Z,126656
2017-05-26T10:48:09.093Z,126272
2017-05-26T10:49:09.084Z,124640
2017-05-26T10:50:09.085Z,124736
2017-05-26T10:51:09.080Z,123680
2017-05-26T10:52:09.076Z,120768
2017-05-26T10:53:09.071Z,119456
2017-05-26T10:54:09.067Z,118304
2017-05-26T10:55:09.059Z,120768
2017-05-26T10:56:09.058Z,124160
2017-05-26T10:57:09.055Z,128160
2017-05-26T10:58:09.052Z,128128
2017-05-26T10:59:09.089Z,130592
2017-05-26T11:00:09.246Z,129184
2017-05-26T11:01:09.245Z,128768
2017-05-26T11:02:09.033Z,128224
2017-05-26T11:03:09.031Z,128320
2017-05-26T11:04:09.028Z,131040
2017-05-26T11:05:22.628Z,127584
2017-05-26T11:06:09.020Z,125568
2017-05-26T11:07:08.718Z,120864
2017-05-26T11:08:09.012Z,120704
2017-05-26T11:09:09.008Z,121152
2017-05-26T11:10:09.007Z,122304
2017-05-26T11:11:09.008Z,119136
2017-05-26T11:12:09.002Z,118688
2017-05-26T11:13:08.695Z,119072
2017-05-26T11:14:08.991Z,119104
2017-05-26T11:15:08.985Z,119264
2017-05-26T11:16:08.682Z,116768
2017-05-26T11:17:08.981Z,115360
2017-05-26T11:18:08.681Z,112544
2017-05-26T11:19:08.666Z,111616
2017-05-26T11:20:08.968Z,112896
2017-05-26T11:21:08.964Z,112128
2017-05-26T11:22:08.958Z,112128
2017-05-26T11:23:08.953Z,109504
2017-05-26T11:24:08.952Z,108832
2017-05-26T11:25:08.951Z,109376
2017-05-26T11:26:08.947Z,113344
2017-05-26T11:27:08.933Z,115296
2017-05-26T11:28:08.634Z,116800
2017-05-26T11:29:08.625Z,117600
2017-05-26T11:30:08.924Z,118688
2017-05-26T11:31:08.922Z,119104
2017-05-26T11:32:08.614Z,119616
2017-05-26T11:33:08.913Z,119328
2017-05-26T11:34:09.122Z,118240
2017-05-26T11:35:08.903Z,117088
2017-05-26T11:36:08.900Z,115200
2017-05-26T11:37:08.899Z,113664
2017-05-26T11:38:08.885Z,111616
2017-05-26T11:39:21.973Z,110592
2017-05-26T11:40:08.775Z,110496
2017-05-26T11:41:08.569Z,109728
2017-05-26T11:42:08.866Z,110432
2017-05-26T11:43:08.860Z,110784
2017-05-26T11:44:08.855Z,110752
2017-05-26T11:45:08.547Z,112640
2017-05-26T11:46:08.545Z,110912
2017-05-26T11:47:08.898Z,109536
2017-05-26T11:48:08.837Z,109248
2017-05-26T11:49:08.829Z,110976
2017-05-26T11:50:08.522Z,109824
2017-05-26T11:51:08.819Z,106464
2017-05-26T11:52:08.515Z,101344
2017-05-26T11:53:08.512Z,97344
2017-05-26T11:54:08.811Z,96352
2017-05-26T11:55:08.836Z,97376
2017-05-26T11:56:08.794Z,103040
2017-05-26T11:57:08.788Z,112320
2017-05-26T11:58:08.486Z,120928
2017-05-26T11:59:08.793Z,133664
2017-05-26T12:00:08.475Z,175904
2017-05-26T12:01:08.773Z,191744
2017-05-26T12:02:08.766Z,202432
2017-05-26T12:03:08.765Z,204160
2017-05-26T12:04:08.761Z,169504
2017-05-26T12:05:08.750Z,146528
2017-05-26T12:06:08.747Z,126080
2017-05-26T12:07:08.745Z,112320
2017-05-26T12:08:08.133Z,110048
2017-05-26T12:09:08.734Z,108576
2017-05-26T12:10:08.425Z,109952
2017-05-26T12:11:08.722Z,118592
2017-05-26T12:12:08.717Z,118080
2017-05-26T12:13:08.710Z,122976
2017-05-26T12:14:08.707Z,123168
2017-05-26T12:15:08.705Z,119104
2017-05-26T12:16:08.697Z,118624
2017-05-26T12:17:08.700Z,119296
2017-05-26T12:18:08.908Z,120160
2017-05-26T12:19:08.900Z,117888
2017-05-26T12:20:08.699Z,110912
2017-05-26T12:21:08.378Z,113696
2017-05-26T12:22:08.070Z,122368
2017-05-26T12:23:08.367Z,126912
2017-05-26T12:24:08.872Z,125440
2017-05-26T12:25:08.665Z,117184
2017-05-26T12:26:08.361Z,109984
2017-05-26T12:27:08.658Z,109632
2017-05-26T12:28:08.654Z,112448
2017-05-26T12:29:08.644Z,121376
2017-05-26T12:30:08.335Z,121056
2017-05-26T12:31:08.633Z,110624
2017-05-26T12:32:08.328Z,102976
2017-05-26T12:33:08.626Z,100640
2017-05-26T12:34:08.620Z,100928
2017-05-26T12:35:08.617Z,105504
2017-05-26T12:36:08.610Z,113888
2017-05-26T12:37:08.609Z,114016
2017-05-26T12:38:08.296Z,116768
2017-05-26T12:39:08.600Z,119616
2017-05-26T12:40:08.602Z,122720
2017-05-26T12:41:08.307Z,127584
2017-05-26T12:42:08.288Z,126592
2017-05-26T12:43:08.286Z,125440
2017-05-26T12:44:08.277Z,130816
2017-05-26T12:45:08.272Z,130784
2017-05-26T12:46:08.584Z,122912
2017-05-26T12:47:21.349Z,116160
2017-05-26T12:48:08.262Z,119680
2017-05-26T12:49:08.260Z,118208
2017-05-26T12:50:07.958Z,113184
2017-05-26T12:51:08.552Z,112512
2017-05-26T12:52:08.547Z,114336
2017-05-26T12:53:08.547Z,116672
2017-05-26T12:54:08.237Z,113344
2017-05-26T12:55:08.232Z,114880
2017-05-26T12:56:08.531Z,114176
2017-05-26T12:57:08.109Z,109088
2017-05-26T12:58:08.733Z,99936
2017-05-26T12:59:08.218Z,97344
2017-05-26T13:00:07.605Z,99840
2017-05-26T13:01:08.204Z,108832
2017-05-26T13:02:08.418Z,108576
2017-05-26T13:03:08.246Z,111072
2017-05-26T13:04:08.499Z,121024
2017-05-26T13:05:08.186Z,127104
2017-05-26T13:06:08.181Z,128960
2017-05-26T13:07:08.175Z,123936
2017-05-26T13:08:08.173Z,115008
2017-05-26T13:09:08.167Z,106304
2017-05-26T13:10:08.164Z,98048
2017-05-26T13:11:08.455Z,93696
2017-05-26T13:12:08.151Z,92576